Time;durP1;ratioP1;P1;durP2;ratioP2;P2;SDS_P1;SDS_P2;PMS_P1;PMS_P2;Temp;Humidity;BMP_temperature;BMP_pressure;BME280_temperature;BME280_humidity;BME280_pressure;Samples;Min_cycle;Max_cycle;Signal;HPM_P1;HPM_P2
2023/09/20 00:00:12;;;;;;;3.80;1.90;;;;;;;;;;5035248;28;20417;-70
2023/09/20 00:02:41;;;;;;;2.67;1.33;;;;;;;;;;5034674;28;20495;-71
2023/09/20 00:05:14;;;;;;;3.07;2.47;;;;;;;;;;5034654;28;20960;-70
2023/09/20 00:07:40;;;;;;;4.37;1.97;;;;;;;;;;5035026;28;20976;-70
2023/09/20 00:10:12;;;;;;;3.37;1.40;;;;;;;;;;5034691;28;20406;-70
2023/09/20 00:12:38;;;;;;;2.93;1.33;;;;;;;;;;5034479;28;20433;-71
2023/09/20 00:15:04;;;;;;;2.80;1.70;;;;;;;;;;5034507;28;20940;-70
2023/09/20 00:17:33;;;;;;;4.23;1.40;;;;;;;;;;5034603;28;20916;-70
2023/09/20 00:20:09;;;;;;;2.73;1.97;;;;;;;;;;5034505;28;20413;-70
2023/09/20 00:22:35;;;;;;;2.27;1.23;;;;;;;;;;5034377;28;20410;-70
2023/09/20 00:25:02;;;;;;;3.27;2.00;;;;;;;;;;5034599;28;20433;-69
2023/09/20 00:27:29;;;;;;;3.17;2.03;;;;;;;;;;5034973;28;20441;-72
2023/09/20 00:29:55;;;;;;;2.87;2.10;;;;;;;;;;5034440;28;20754;-69
2023/09/20 00:32:21;;;;;;;2.73;1.70;;;;;;;;;;5034110;28;20464;-70
2023/09/20 00:34:47;;;;;;;4.40;2.63;;;;;;;;;;5032911;28;20436;-70
2023/09/20 00:37:13;;;;;;;3.63;2.10;;;;;;;;;;5034298;28;20414;-69
2023/09/20 00:39:39;;;;;;;2.80;1.80;;;;;;;;;;5033391;28;20424;-70
2023/09/20 00:42:05;;;;;;;2.23;1.20;;;;;;;;;;5033960;28;20413;-71
2023/09/20 00:44:31;;;;;;;4.20;2.10;;;;;;;;;;5033962;28;20431;-71
2023/09/20 00:46:57;;;;;;;2.20;1.50;;;;;;;;;;5034082;28;20414;-70
2023/09/20 00:49:24;;;;;;;4.43;1.47;;;;;;;;;;5033923;28;20991;-70
2023/09/20 00:51:51;;;;;;;2.00;1.20;;;;;;;;;;5033736;28;20758;-70
2023/09/20 00:54:17;;;;;;;2.53;1.47;;;;;;;;;;5033860;28;20489;-70
2023/09/20 00:56:43;;;;;;;4.77;2.10;;;;;;;;;;5033824;28;20490;-71
2023/09/20 00:59:10;;;;;;;2.67;1.70;;;;;;;;;;5033826;28;20418;-70
2023/09/20 01:01:37;;;;;;;2.47;1.27;;;;;;;;;;5033779;28;20416;-70
2023/09/20 01:04:05;;;;;;;2.87;1.40;;;;;;;;;;5032112;28;20462;-71
2023/09/20 01:06:32;;;;;;;6.33;1.73;;;;;;;;;;5033782;28;20413;-70
2023/09/20 01:08:58;;;;;;;6.53;2.37;;;;;;;;;;5033570;28;20465;-70
2023/09/20 01:11:24;;;;;;;3.03;1.93;;;;;;;;;;5033565;28;20410;-69
2023/09/20 01:13:50;;;;;;;3.53;1.63;;;;;;;;;;5033313;28;20938;-70
2023/09/20 01:16:16;;;;;;;3.37;1.30;;;;;;;;;;5033602;28;20418;-70
2023/09/20 01:18:44;;;;;;;2.77;1.53;;;;;;;;;;5032298;28;20424;-70
2023/09/20 01:21:11;;;;;;;3.77;1.57;;;;;;;;;;5032063;28;20423;-70
2023/09/20 01:23:38;;;;;;;6.77;3.00;;;;;;;;;;5033083;28;20424;-71
2023/09/20 01:26:05;;;;;;;5.83;2.60;;;;;;;;;;5033354;28;20425;-70
2023/09/20 01:28:31;;;;;;;3.00;1.70;;;;;;;;;;5033201;28;20518;-71
2023/09/20 01:31:00;;;;;;;3.73;2.10;;;;;;;;;;5033283;28;20434;-70
2023/09/20 01:33:26;;;;;;;3.23;2.10;;;;;;;;;;5031504;28;20414;-70
2023/09/20 01:35:54;;;;;;;4.50;1.57;;;;;;;;;;5033316;28;20419;-70
2023/09/20 01:38:20;;;;;;;2.83;1.23;;;;;;;;;;5033699;28;20868;-70
2023/09/20 01:40:46;;;;;;;2.80;2.03;;;;;;;;;;5033019;28;20928;-69
2023/09/20 01:43:13;;;;;;;2.70;1.63;;;;;;;;;;5031385;28;20843;-70
2023/09/20 01:45:42;;;;;;;4.90;2.10;;;;;;;;;;5032866;28;20488;-69
2023/09/20 01:48:11;;;;;;;2.30;1.20;;;;;;;;;;5032997;28;20531;-69
2023/09/20 01:50:37;;;;;;;3.17;1.73;;;;;;;;;;5031804;28;20413;-69
2023/09/20 01:53:09;;;;;;;2.60;1.27;;;;;;;;;;5031219;28;20412;-70
2023/09/20 01:55:37;;;;;;;4.90;1.93;;;;;;;;;;5031510;28;20926;-70
2023/09/20 01:58:05;;;;;;;3.20;1.50;;;;;;;;;;5033069;28;20456;-69
2023/09/20 02:00:36;;;;;;;3.40;2.20;;;;;;;;;;5032793;28;20410;-69
2023/09/20 02:03:08;;;;;;;4.80;2.50;;;;;;;;;;5032489;28;20421;-69
2023/09/20 02:05:38;;;;;;;4.43;1.40;;;;;;;;;;5032731;28;20537;-70
2023/09/20 02:08:04;;;;;;;1.80;1.20;;;;;;;;;;5032379;28;20540;-69
2023/09/20 02:10:31;;;;;;;2.80;1.83;;;;;;;;;;5032371;28;20436;-70
2023/09/20 02:12:57;;;;;;;3.30;1.57;;;;;;;;;;5032104;28;20431;-70
2023/09/20 02:15:24;;;;;;;4.43;2.00;;;;;;;;;;5032256;28;20426;-69
2023/09/20 02:17:51;;;;;;;2.40;1.90;;;;;;;;;;5032294;28;20461;-69
2023/09/20 02:20:20;;;;;;;3.50;1.43;;;;;;;;;;5032302;28;20420;-69
2023/09/20 02:22:49;;;;;;;2.83;1.63;;;;;;;;;;5031981;28;20858;-69
2023/09/20 02:25:20;;;;;;;2.73;1.70;;;;;;;;;;5032094;28;20441;-70
2023/09/20 02:27:46;;;;;;;2.70;1.73;;;12.30;57.70;;;;;;5032160;28;20467;-69
2023/09/20 02:30:17;;;;;;;3.70;1.70;;;12.30;58.90;;;;;;5032196;28;20418;-70
2023/09/20 02:32:52;;;;;;;6.30;2.20;;;12.30;58.70;;;;;;5031915;28;20441;-70
2023/09/20 02:35:18;;;;;;;4.70;2.30;;;12.30;58.30;;;;;;5031985;28;20804;-69
2023/09/20 02:37:46;;;;;;;3.67;1.50;;;12.30;57.90;;;;;;5031995;28;20509;-70
2023/09/20 02:40:13;;;;;;;3.10;1.40;;;12.30;58.10;;;;;;5032023;28;20904;-70
2023/09/20 02:42:52;;;;;;;6.83;1.87;;;12.20;58.20;;;;;;5031680;28;20501;-70
2023/09/20 02:45:19;;;;;;;3.10;1.60;;;12.20;58.70;;;;;;5031918;28;20962;-70
2023/09/20 02:47:46;;;;;;;3.60;1.83;;;12.20;58.80;;;;;;5031876;28;20461;-70
2023/09/20 02:50:13;;;;;;;2.50;1.43;;;12.10;58.30;;;;;;5031893;28;20415;-69
2023/09/20 02:52:41;;;;;;;3.00;1.90;;;12.10;58.10;;;;;;5031639;28;20493;-69
2023/09/20 02:55:13;;;;;;;3.17;1.27;;;12.10;58.20;;;;;;5030509;28;20448;-69
2023/09/20 02:57:44;;;;;;;2.53;1.33;;;12.10;60.00;;;;;;5031995;28;20915;-70
2023/09/20 03:00:15;;;;;;;2.20;1.00;;;12.10;59.70;;;;;;5031919;28;20477;-70
2023/09/20 03:02:49;;;;;;;3.27;1.93;;;12.10;60.10;;;;;;5031142;28;20417;-70
2023/09/20 03:05:25;;;;;;;2.87;1.80;;;12.10;60.00;;;;;;5031654;28;20478;-70
2023/09/20 03:07:53;;;;;;;2.50;1.87;;;12.10;59.20;;;;;;5031889;28;21107;-69
2023/09/20 03:10:21;;;;;;;3.17;1.67;;;12.10;59.30;;;;;;5031650;28;20406;-69
2023/09/20 03:12:48;;;;;;;3.93;2.10;;;12.10;59.80;;;;;;5031299;28;20912;-70
2023/09/20 03:15:21;;;;;;;2.90;1.73;;;12.10;60.20;;;;;;5031543;28;20441;-70
2023/09/20 03:17:57;;;;;;;3.93;1.23;;;12.10;59.90;;;;;;5031639;28;20412;-69
2023/09/20 03:20:24;;;;;;;4.57;2.00;;;12.10;59.70;;;;;;5031559;28;20416;-70
2023/09/20 03:22:55;;;;;;;3.10;2.27;;;12.10;60.00;;;;;;5031339;28;20475;-69
2023/09/20 03:25:22;;;;;;;3.00;2.07;;;12.10;60.40;;;;;;5031878;28;20447;-70
2023/09/20 03:27:48;;;;;;;3.27;2.20;;;12.10;60.00;;;;;;5031560;28;20493;-69
2023/09/20 03:30:16;;;;;;;4.27;2.10;;;12.00;59.90;;;;;;5031483;28;20497;-70
2023/09/20 03:32:46;;;;;;;2.77;1.57;;;12.10;59.90;;;;;;5031401;28;20852;-70
2023/09/20 03:35:15;;;;;;;2.60;1.50;;;12.00;60.20;;;;;;5031512;28;20960;-70
2023/09/20 03:37:43;;;;;;;3.27;1.80;;;12.10;60.40;;;;;;5031486;28;20424;-70
2023/09/20 03:40:19;;;;;;;5.40;1.33;;;12.00;61.00;;;;;;5031289;28;20418;-70
2023/09/20 03:42:46;;;;;;;2.33;1.47;;;12.00;60.60;;;;;;5031274;28;20512;-70
2023/09/20 03:45:14;;;;;;;2.70;1.83;;;12.00;61.00;;;;;;5031359;28;20439;-69
2023/09/20 03:47:40;;;;;;;2.37;1.40;;;12.00;60.90;;;;;;5031254;28;20471;-69
2023/09/20 03:50:07;;;;;;;4.03;1.67;;;12.00;59.90;;;;;;5031781;28;20422;-69
2023/09/20 03:52:33;;;;;;;2.87;1.80;;;12.00;61.50;;;;;;5031054;28;20410;-69
2023/09/20 03:54:58;;;;;;;2.97;1.80;;;12.00;61.30;;;;;;5031476;28;20487;-69
2023/09/20 03:57:25;;;;;;;3.10;1.47;;;12.00;61.00;;;;;;5031501;28;20409;-69
2023/09/20 03:59:54;;;;;;;3.90;1.87;;;12.00;61.30;;;;;;5030028;28;20175;-69
2023/09/20 04:02:23;;;;;;;2.30;1.60;;;12.00;62.00;;;;;;5030981;28;20838;-69
2023/09/20 04:04:50;;;;;;;2.97;2.03;;;11.90;62.40;;;;;;5031046;28;20825;-69
2023/09/20 04:07:15;;;;;;;3.50;2.00;;;;;;;;;;5031133;28;20906;-70
2023/09/20 04:09:43;;;;;;;2.93;1.20;;;;;;;;;;5030973;28;20416;-70
2023/09/20 04:12:10;;;;;;;5.03;1.57;;;;;;;;;;5029573;28;20425;-70
2023/09/20 04:14:35;;;;;;;3.43;2.70;;;11.80;63.60;;;;;;5033056;28;20809;-70
2023/09/20 04:17:03;;;;;;;10.33;2.30;;;;;;;;;;5034574;28;20484;-70
2023/09/20 04:19:29;;;;;;;3.07;1.40;;;;;;;;;;5034478;28;20207;-70
2023/09/20 04:21:56;;;;;;;2.87;1.80;;;;;;;;;;5034209;28;20403;-69
2023/09/20 04:24:22;;;;;;;3.50;1.73;;;;;;;;;;5034373;28;20436;-70
2023/09/20 04:26:48;;;;;;;3.37;1.73;;;;;;;;;;5034443;28;20489;-69
2023/09/20 04:29:14;;;;;;;3.30;2.00;;;;;;;;;;5033128;28;20452;-70
2023/09/20 04:31:40;;;;;;;3.40;2.17;;;;;;;;;;5034472;28;20724;-70
2023/09/20 04:34:07;;;;;;;2.67;1.67;;;;;;;;;;5034204;28;20434;-70
2023/09/20 04:36:34;;;;;;;3.70;2.03;;;;;;;;;;5034225;28;20420;-69
2023/09/20 04:39:00;;;;;;;6.00;1.90;;;;;;;;;;5034085;28;20468;-69
2023/09/20 04:41:26;;;;;;;8.63;2.13;;;;;;;;;;5034016;28;20414;-69
2023/09/20 04:43:52;;;;;;;3.33;1.80;;;;;;;;;;5033867;28;20430;-70
2023/09/20 04:46:18;;;;;;;3.20;1.60;;;;;;;;;;5034045;28;20414;-69
2023/09/20 04:48:44;;;;;;;3.63;2.17;;;;;;;;;;5033900;28;20411;-69
2023/09/20 04:51:11;;;;;;;3.17;1.93;;;;;;;;;;5033980;28;20425;-69
2023/09/20 04:53:39;;;;;;;5.67;2.50;;;;;;;;;;5033549;28;20822;-69
2023/09/20 04:56:06;;;;;;;4.03;1.87;;;;;;;;;;5033891;28;21009;-69
2023/09/20 04:58:32;;;;;;;2.70;1.57;;;;;;;;;;5033967;28;20457;-69
2023/09/20 05:00:58;;;;;;;3.20;2.00;;;;;;;;;;5033728;28;20978;-69
2023/09/20 05:03:24;;;;;;;4.80;1.73;;;;;;;;;;5033448;28;20419;-69
2023/09/20 05:05:53;;;;;;;3.63;2.13;;;;;;;;;;5033636;28;20454;-69
2023/09/20 05:08:19;;;;;;;5.23;1.90;;;;;;;;;;5033650;28;20505;-68
2023/09/20 05:10:45;;;;;;;3.47;2.30;;;;;;;;;;5033547;28;20460;-69
2023/09/20 05:13:11;;;;;;;4.73;1.90;;;;;;;;;;5033226;28;20421;-69
2023/09/20 05:15:38;;;;;;;3.57;2.27;;;;;;;;;;5033387;28;20504;-69
2023/09/20 05:18:07;;;;;;;3.33;1.60;;;;;;;;;;5033297;28;20497;-69
2023/09/20 05:20:35;;;;;;;3.50;2.47;;;;;;;;;;5033730;28;20497;-69
2023/09/20 05:23:03;;;;;;;4.20;2.23;;;;;;;;;;5033063;28;20402;-69
2023/09/20 05:25:29;;;;;;;3.60;2.50;;;;;;;;;;5032828;28;20430;-69
2023/09/20 05:27:55;;;;;;;4.57;2.00;;;;;;;;;;5033219;28;20417;-69
2023/09/20 05:30:21;;;;;;;4.17;2.47;;;;;;;;;;5033077;28;20459;-70
2023/09/20 05:32:51;;;;;;;5.77;2.90;;;;;;;;;;5032857;28;20448;-69
2023/09/20 05:35:17;;;;;;;6.13;2.90;;;;;;;;;;5031760;28;20442;-69
2023/09/20 05:37:43;;;;;;;5.27;3.37;;;;;;;;;;5032943;28;20402;-69
2023/09/20 05:40:18;;;;;;;5.00;2.80;;;;;;;;;;5033023;28;20410;-69
2023/09/20 05:42:48;;;;;;;4.60;2.67;;;;;;;;;;5031556;28;20437;-69
2023/09/20 05:45:14;;;;;;;5.30;2.70;;;;;;;;;;5032680;28;20434;-69
2023/09/20 05:47:41;;;;;;;3.67;2.50;;;;;;;;;;5033048;28;20831;-69
2023/09/20 05:50:10;;;;;;;4.10;2.20;;;;;;;;;;5032875;28;20496;-70
2023/09/20 05:52:37;;;;;;;6.03;2.67;;;;;;;;;;5032468;28;20413;-69
2023/09/20 05:55:03;;;;;;;4.20;2.13;;;;;;;;;;5032619;28;20427;-69
2023/09/20 05:57:29;;;;;;;5.33;4.83;;;;;;;;;;5032503;28;20890;-70
2023/09/20 05:59:56;;;;;;;5.67;3.17;;;;;;;;;;5032539;28;20460;-70
2023/09/20 06:02:22;;;;;;;7.20;2.17;;;;;;;;;;5032321;28;20406;-69
2023/09/20 06:04:48;;;;;;;3.70;2.60;;;;;;;;;;5032328;28;20496;-70
2023/09/20 06:07:14;;;;;;;4.60;2.53;;;;;;;;;;5032531;28;20414;-70
2023/09/20 06:09:40;;;;;;;4.27;2.17;;;;;;;;;;5031100;28;20426;-69
2023/09/20 06:12:06;;;;;;;3.77;1.80;;;;;;;;;;5032044;28;20464;-70
2023/09/20 06:14:32;;;;;;;3.10;1.90;;;;;;;;;;5032184;28;20434;-70
2023/09/20 06:17:00;;;;;;;5.70;2.10;;;;;;;;;;5032438;28;20835;-69
2023/09/20 06:19:30;;;;;;;3.20;1.97;;;;;;;;;;5032244;28;20462;-70
2023/09/20 06:21:57;;;;;;;3.60;2.17;;;;;;;;;;5031917;28;20417;-70
2023/09/20 06:24:22;;;;;;;3.33;2.80;;;;;;;;;;5032177;28;20827;-70
2023/09/20 06:26:49;;;;;;;4.23;3.53;;;;;;;;;;5032112;28;20409;-69
2023/09/20 06:29:14;;;;;;;4.00;3.53;;;;;;;;;;5032039;28;20487;-70
2023/09/20 06:31:40;;;;;;;3.83;3.53;;;;;;;;;;5031795;28;20414;-70
2023/09/20 06:34:06;;;;;;;6.20;3.37;;;;;;;;;;5031660;28;20433;-70
2023/09/20 06:36:32;;;;;;;3.57;3.27;;;;;;;;;;5031325;28;20418;-70
2023/09/20 06:38:59;;;;;;;3.60;3.30;;;;;;;;;;5031887;28;20543;-70
2023/09/20 06:41:24;;;;;;;4.00;3.60;;;30.30;1.00;;;;;;5031953;28;20925;-70
2023/09/20 06:43:50;;;;;;;3.60;3.30;;;31.10;1.00;;;;;;5031630;28;20521;-70
2023/09/20 06:46:15;;;;;;;3.80;3.50;;;31.90;1.00;;;;;;5031880;28;20175;-70
2023/09/20 06:48:41;;;;;;;3.70;3.40;;;31.90;1.00;;;;;;5033596;28;20178;-70
2023/09/20 06:51:08;;;;;;;3.70;3.40;;;32.30;1.00;;;;;;5032108;28;20175;-70
2023/09/20 06:53:34;;;;;;;3.40;3.10;;;32.10;1.00;;;;;;5031507;28;20171;-70
2023/09/20 06:56:00;;;;;;;3.73;3.43;;;30.20;1.00;;;;;;5031777;28;20974;-70
2023/09/20 06:58:26;;;;;;;4.40;4.00;;;29.30;1.00;;;;;;5030367;28;20686;-70
2023/09/20 07:00:52;;;;;;;3.73;3.43;;;28.60;1.00;;;;;;5031701;28;20179;-70
2023/09/20 07:03:22;;;;;;;5.23;2.87;;;27.30;1.00;;;;;;5031446;28;20472;-70
2023/09/20 07:05:48;;;;;;;3.93;2.90;;;25.40;1.00;;;;;;5031636;28;20445;-70
2023/09/20 07:08:14;;;;;;;4.33;3.10;;;24.10;1.00;;;;;;5031630;28;20758;-70
2023/09/20 07:10:41;;;;;;;4.93;3.40;;;23.00;1.00;;;;;;5031522;28;20463;-70
2023/09/20 07:13:09;;;;;;;2.70;2.20;;;22.20;1.00;;;;;;5031324;28;20958;-70
2023/09/20 07:15:35;;;;;;;2.60;1.70;;;21.50;1.00;;;;;;5031706;28;20839;-69
2023/09/20 07:18:11;;;;;;;6.60;2.53;;;20.80;1.70;;;;;;5031566;28;20445;-70
2023/09/20 07:20:39;;;;;;;4.87;2.57;;;20.40;3.20;;;;;;5031594;28;20167;-70
2023/09/20 07:23:06;;;;;;;33.83;7.63;;;20.20;4.10;;;;;;5031189;28;20479;-70
2023/09/20 07:25:35;;;;;;;9.73;2.70;;;20.00;4.90;;;;;;5031412;28;20433;-70
2023/09/20 07:28:03;;;;;;;6.17;3.50;;;19.90;5.40;;;;;;5031482;28;20413;-70
2023/09/20 07:30:31;;;;;;;2.77;2.03;;;19.80;6.00;;;;;;5031692;28;20418;-70
2023/09/20 07:32:59;;;;;;;3.80;1.73;;;19.90;5.90;;;;;;5032017;28;20414;-70
2023/09/20 07:35:28;;;;;;;3.60;1.60;;;19.60;6.70;;;;;;5031761;28;20425;-71
2023/09/20 07:37:58;;;;;;;7.30;2.47;;;19.70;6.60;;;;;;5031590;28;20476;-70
2023/09/20 07:40:28;;;;;;;3.50;2.00;;;20.00;5.50;;;;;;5030183;28;20417;-68
2023/09/20 07:43:07;;;;;;;2.83;2.30;;;20.10;4.90;;;;;;5031153;28;20443;-70
2023/09/20 07:45:38;;;;;;;4.60;2.20;;;19.90;5.40;;;;;;5031381;28;20576;-68
2023/09/20 07:48:12;;;;;;;3.30;2.17;;;19.80;5.60;;;;;;5031227;28;20434;-69
2023/09/20 07:50:55;;;;;;;2.57;1.80;;;20.00;5.40;;;;;;5034953;28;20513;-70
2023/09/20 07:53:21;;;;;;;3.30;2.10;;;20.20;5.00;;;;;;5034761;28;20414;-69
2023/09/20 07:56:05;;;;;;;10.10;7.33;;;20.30;4.30;;;;;;5035746;28;20516;-70
2023/09/20 07:58:36;;;;;;;4.13;2.50;;;20.30;3.70;;;;;;5034869;28;20473;-71
2023/09/20 08:01:12;;;;;;;5.30;3.10;;;20.30;4.60;;;;;;5034951;28;20428;-69
2023/09/20 08:03:38;;;;;;;7.33;3.20;;;20.30;6.00;;;;;;5034861;28;20410;-69
2023/09/20 08:06:08;;;;;;;5.20;3.30;;;20.00;8.20;;;;;;5083265;22;20565;-69
2023/09/20 08:08:35;;;;;;;5.10;3.40;;;20.10;7.60;;;;;;5054528;28;20484;-69
2023/09/20 08:11:00;;;;;;;9.30;3.20;;;20.10;8.20;;;;;;5054407;28;20401;-69
2023/09/20 08:13:26;;;;;;;5.00;2.60;;;20.10;7.60;;;;;;5054335;28;20915;-68
2023/09/20 08:15:51;;;;;;;5.77;3.20;;;20.00;8.00;;;;;;5054303;28;20190;-68
2023/09/20 08:21:03;;;;;;;4.43;3.13;;;19.80;9.20;;;;;;5054612;28;20197;-68
2023/09/20 09:01:59;;;;;;;7.47;3.10;;;19.80;11.90;;;;;;5053253;28;20482;-67
2023/09/20 09:04:25;;;;;;;7.37;4.57;;;19.90;11.30;;;;;;5053168;28;20448;-68
2023/09/20 09:06:51;;;;;;;4.77;2.73;;;20.00;9.80;;;;;;5053470;28;20409;-68
2023/09/20 09:09:16;;;;;;;5.93;2.90;;;20.00;10.60;;;;;;5053451;28;20209;-67
2023/09/20 09:11:45;;;;;;;4.57;2.40;;;20.10;11.40;;;;;;5053384;28;20175;-68
2023/09/20 09:14:12;;;;;;;3.57;2.67;;;20.20;10.10;;;;;;5035111;28;20206;-67
2023/09/20 09:16:38;;;;;;;9.10;3.33;;;20.30;9.90;;;;;;5053248;28;20415;-68
2023/09/20 09:19:03;;;;;;;6.70;3.07;;;20.50;10.10;;;;;;5053165;28;20539;-68
2023/09/20 09:21:30;;;;;;;5.97;2.40;;;20.60;9.00;;;;;;5053153;28;20667;-67
2023/09/20 09:23:57;;;;;;;3.47;2.07;;;20.80;8.50;;;;;;5034867;28;20174;-67
2023/09/20 09:26:24;;;;;;;8.20;4.40;;;20.90;8.30;;;;;;5053184;28;20401;-68
2023/09/20 09:28:50;;;;;;;7.33;4.73;;;21.00;8.40;;;;;;5053082;28;20414;-68
2023/09/20 09:31:16;;;;;;;3.33;2.20;;;21.10;6.60;;;;;;5053019;28;20411;-67
2023/09/20 09:33:42;;;;;;;3.23;2.03;;;21.20;5.80;;;;;;5052723;28;20190;-68
2023/09/20 09:36:08;;;;;;;6.40;2.40;;;21.30;5.70;;;;;;5052804;28;20230;-68
2023/09/20 09:38:35;;;;;;;36.93;21.27;;;21.40;6.20;;;;;;5052691;28;20459;-68
2023/09/20 09:41:02;;;;;;;31.93;17.67;;;21.50;4.20;;;;;;5053014;28;20413;-68
2023/09/20 09:43:29;;;;;;;6.47;5.40;;;21.60;4.50;;;;;;5052518;28;20409;-67
2023/09/20 09:46:03;;;;;;;4.80;3.00;;;21.70;4.10;;;;;;5052755;28;20530;-68
2023/09/20 09:48:32;;;;;;;4.27;3.10;;;21.80;5.00;;;;;;5052679;28;20405;-67
2023/09/20 09:50:59;;;;;;;6.23;3.23;;;22.00;4.20;;;;;;5052592;28;21048;-68
2023/09/20 09:53:26;;;;;;;2.30;1.93;;;22.10;2.70;;;;;;5034477;28;20449;-67
2023/09/20 09:55:51;;;;;;;3.30;2.20;;;22.10;1.90;;;;;;5052658;28;20440;-68
2023/09/20 09:58:17;;;;;;;2.40;2.20;;;22.20;2.10;;;;;;5052626;28;20448;-68
2023/09/20 10:00:48;;;;;;;4.00;3.13;;;22.40;2.50;;;;;;5052841;28;20418;-69
2023/09/20 10:03:29;;;;;;;2.63;2.20;;;22.40;1.80;;;;;;5052270;28;20198;-69
2023/09/20 10:06:11;;;;;;;5.20;2.80;;;22.60;2.90;;;;;;5052284;28;20900;-68
2023/09/20 10:08:39;;;;;;;25.27;17.77;;;22.80;1.80;;;;;;5052405;28;20471;-68
2023/09/20 10:11:06;;;;;;;3.57;3.13;;;22.90;1.00;;;;;;5051559;28;20459;-68
2023/09/20 10:13:34;;;;;;;3.87;3.03;;;23.10;1.20;;;;;;5051857;28;20417;-68
2023/09/20 10:16:01;;;;;;;3.60;2.90;;;23.00;1.00;;;;;;5052034;28;20441;-68
2023/09/20 10:18:54;;;;;;;9.77;3.00;;;23.10;1.10;;;;;;5034204;28;20480;-69
2023/09/20 10:21:25;;;;;;;2.83;2.23;;;23.10;1.00;;;;;;5034062;28;20483;-68
2023/09/20 10:23:59;;;;;;;3.03;2.63;;;23.00;1.00;;;;;;5051764;28;20892;-68
2023/09/20 10:26:26;;;;;;;2.40;2.17;;;23.00;1.00;;;;;;5051984;28;20842;-68
2023/09/20 10:29:17;;;;;;;6.77;2.80;;;23.00;1.00;;;;;;5051989;28;20922;-68
2023/09/20 10:31:43;;;;;;;4.70;2.63;;;23.10;1.00;;;;;;5033889;28;20418;-69
2023/09/20 10:34:09;;;;;;;3.50;2.20;;;23.10;1.00;;;;;;5051604;28;20420;-68
2023/09/20 10:36:35;;;;;;;2.67;2.17;;;23.30;1.00;;;;;;5051883;28;20183;-68
2023/09/20 10:39:19;;;;;;;2.70;2.30;;;23.40;1.00;;;;;;5051812;28;20296;-69
2023/09/20 10:41:46;;;;;;;4.70;3.33;;;23.70;1.00;;;;;;5051708;28;20412;-68
2023/09/20 10:44:35;;;;;;;2.87;2.50;;;23.90;1.00;;;;;;5051581;28;20463;-68
2023/09/20 10:47:08;;;;;;;3.17;2.70;;;23.90;1.00;;;;;;5052083;28;20438;-68
2023/09/20 10:49:56;;;;;;;3.20;2.60;;;23.90;1.00;;;;;;5051810;28;20409;-68
2023/09/20 10:52:31;;;;;;;2.80;2.47;;;24.00;1.00;;;;;;5051410;28;20409;-68
2023/09/20 10:55:16;;;;;;;3.87;3.33;;;24.10;1.00;;;;;;5051567;28;20436;-68
2023/09/20 10:57:42;;;;;;;3.47;2.90;;;24.20;1.00;;;;;;5051504;28;20428;-68
2023/09/20 11:00:09;;;;;;;3.07;2.83;;;24.30;1.00;;;;;;5051593;28;20952;-69
2023/09/20 11:02:37;;;;;;;4.10;3.30;;;24.30;1.00;;;;;;5051134;28;20410;-68
2023/09/20 11:05:06;;;;;;;3.07;2.77;;;24.50;1.00;;;;;;5051117;28;20493;-68
2023/09/20 11:07:34;;;;;;;2.63;2.43;;;24.60;1.00;;;;;;5051443;28;20900;-69
2023/09/20 11:10:02;;;;;;;3.90;3.47;;;24.60;1.00;;;;;;5051385;28;20478;-69
2023/09/20 11:12:29;;;;;;;3.90;3.50;;;24.80;1.00;;;;;;5051001;28;20413;-68
2023/09/20 11:14:55;;;;;;;9.43;5.80;;;24.80;1.00;;;;;;5051208;28;20425;-68
2023/09/20 11:17:20;;;;;;;3.47;3.03;;;24.80;1.00;;;;;;5051344;28;20424;-68
2023/09/20 11:19:47;;;;;;;6.33;3.03;;;24.80;1.00;;;;;;5051197;28;20249;-68
2023/09/20 11:22:17;;;;;;;2.73;2.53;;;24.90;1.00;;;;;;5051003;28;20178;-68
2023/09/20 11:24:43;;;;;;;3.33;3.03;;;24.80;1.00;;;;;;5055250;28;20421;-68
2023/09/20 11:27:11;;;;;;;3.13;2.83;;;25.00;1.00;;;;;;5055346;28;20425;-68
2023/09/20 11:29:40;;;;;;;4.60;4.27;;;25.20;1.00;;;;;;5055299;28;20174;-68
2023/09/20 11:32:11;;;;;;;3.17;2.87;;;25.30;1.00;;;;;;5054947;28;20424;-69
2023/09/20 11:34:49;;;;;;;5.77;3.53;;;25.30;1.00;;;;;;5055184;28;20436;-68
2023/09/20 11:37:17;;;;;;;3.70;3.23;;;25.20;1.00;;;;;;5055226;28;20944;-68
2023/09/20 11:39:44;;;;;;;3.20;2.90;;;25.20;1.00;;;;;;5055106;28;20982;-68
2023/09/20 11:42:20;;;;;;;3.00;2.70;;;25.40;1.00;;;;;;5055083;28;20839;-68
2023/09/20 11:44:55;;;;;;;3.80;3.10;;;25.50;1.00;;;;;;5055108;28;20848;-69
2023/09/20 11:47:20;;;;;;;4.57;4.20;;;25.60;1.00;;;;;;5055092;28;20404;-69
2023/09/20 11:49:47;;;;;;;3.60;3.30;;;25.70;1.00;;;;;;5055007;28;20416;-68
2023/09/20 11:52:17;;;;;;;2.80;2.60;;;25.70;1.00;;;;;;5054664;28;20266;-69
2023/09/20 11:54:43;;;;;;;3.40;3.10;;;25.90;1.00;;;;;;5054773;28;20433;-68
2023/09/20 11:57:16;;;;;;;3.90;3.17;;;26.00;1.00;;;;;;5054828;28;20441;-68
2023/09/20 11:59:43;;;;;;;2.70;2.50;;;25.90;1.00;;;;;;5054726;28;20460;-68
2023/09/20 12:02:09;;;;;;;3.40;3.10;;;25.80;1.00;;;;;;5054251;28;20413;-68
2023/09/20 12:04:35;;;;;;;3.10;2.90;;;25.90;1.00;;;;;;5054474;28;20487;-69
2023/09/20 12:07:01;;;;;;;2.70;2.50;;;26.10;1.00;;;;;;5054665;28;20469;-68
2023/09/20 12:09:27;;;;;;;2.90;2.70;;;26.10;1.00;;;;;;5054376;28;20421;-67
2023/09/20 12:11:53;;;;;;;3.00;2.80;;;26.20;1.00;;;;;;5036264;28;20577;-67
2023/09/20 12:14:18;;;;;;;2.63;2.43;;;26.40;1.00;;;;;;5054352;28;20433;-67
2023/09/20 12:16:47;;;;;;;2.60;2.40;;;26.60;1.00;;;;;;5054428;28;20637;-67
2023/09/20 12:19:15;;;;;;;3.00;2.80;;;26.50;1.00;;;;;;5054479;28;20214;-67
2023/09/20 12:21:41;;;;;;;3.23;2.60;;;26.40;1.00;;;;;;5054441;28;20417;-67
2023/09/20 12:24:06;;;;;;;3.47;3.20;;;26.40;1.00;;;;;;5054090;28;20413;-68
2023/09/20 12:26:33;;;;;;;5.30;3.80;;;26.30;1.00;;;;;;5054214;28;20167;-67
2023/09/20 12:28:58;;;;;;;3.90;2.70;;;26.40;1.00;;;;;;5054162;28;20198;-68
2023/09/20 12:31:25;;;;;;;3.40;3.10;;;26.40;1.00;;;;;;5054131;28;20461;-67
2023/09/20 12:33:52;;;;;;;3.03;2.83;;;26.60;1.00;;;;;;5053644;28;20561;-67
2023/09/20 12:36:18;;;;;;;3.80;3.50;;;26.50;1.00;;;;;;5053660;28;20496;-67
2023/09/20 12:38:44;;;;;;;3.00;2.80;;;26.50;1.00;;;;;;5054147;28;20531;-68
2023/09/20 12:41:11;;;;;;;4.93;4.60;;;26.80;1.00;;;;;;5054047;28;20171;-68
2023/09/20 12:43:37;;;;;;;3.53;3.30;;;27.00;1.00;;;;;;5054181;28;20405;-67
2023/09/20 12:46:04;;;;;;;3.17;2.80;;;26.90;1.00;;;;;;5054008;28;20433;-68
2023/09/20 12:48:29;;;;;;;3.50;3.30;;;27.10;1.00;;;;;;5053898;28;20409;-68
2023/09/20 12:50:56;;;;;;;3.43;3.13;;;27.10;1.00;;;;;;5053746;28;20919;-67
2023/09/20 12:53:23;;;;;;;3.47;3.17;;;27.30;1.00;;;;;;5053612;28;20605;-68
2023/09/20 12:55:50;;;;;;;3.67;3.33;;;27.30;1.00;;;;;;5035868;28;20813;-67
2023/09/20 12:58:16;;;;;;;3.27;3.07;;;27.30;1.00;;;;;;5053709;28;21015;-67
2023/09/20 13:00:43;;;;;;;3.60;3.30;;;27.30;1.00;;;;;;5053575;28;20780;-67
2023/09/20 13:03:08;;;;;;;4.00;3.70;;;27.40;1.00;;;;;;5053305;28;20440;-68
2023/09/20 13:05:40;;;;;;;6.03;4.20;;;27.40;1.00;;;;;;5053323;28;20444;-68
2023/09/20 13:08:06;;;;;;;2.67;2.47;;;27.30;1.00;;;;;;5053457;28;20175;-67
2023/09/20 13:10:33;;;;;;;3.23;2.80;;;27.20;1.00;;;;;;5053350;28;20428;-67
2023/09/20 13:13:02;;;;;;;2.90;2.70;;;27.10;1.00;;;;;;5035146;28;20420;-68
2023/09/20 13:15:28;;;;;;;3.53;3.23;;;27.20;1.00;;;;;;5053465;28;20436;-67
2023/09/20 13:17:55;;;;;;;4.13;3.27;;;27.30;1.00;;;;;;5053454;28;20416;-67
2023/09/20 13:20:24;;;;;;;11.93;5.33;;;27.20;1.00;;;;;;5053336;28;20179;-67
2023/09/20 13:22:55;;;;;;;4.10;3.20;;;27.20;1.00;;;;;;5053007;28;20417;-67
2023/09/20 13:25:21;;;;;;;3.50;2.90;;;27.20;1.00;;;;;;5053228;28;20433;-67
2023/09/20 13:27:49;;;;;;;3.23;3.00;;;27.20;1.00;;;;;;5053160;28;20427;-68
2023/09/20 13:30:17;;;;;;;3.40;3.20;;;27.20;1.00;;;;;;5053073;28;20496;-67
2023/09/20 13:32:43;;;;;;;2.90;2.70;;;27.40;1.00;;;;;;5052836;28;20405;-68
2023/09/20 13:35:10;;;;;;;3.33;3.13;;;27.40;1.00;;;;;;5053037;28;20993;-67
2023/09/20 13:37:40;;;;;;;3.30;3.10;;;27.40;1.00;;;;;;5052820;28;20413;-67
2023/09/20 13:40:07;;;;;;;3.50;3.20;;;27.70;1.00;;;;;;5052519;28;20539;-68
2023/09/20 13:42:34;;;;;;;3.80;3.50;;;27.80;1.00;;;;;;5052653;28;20780;-67
2023/09/20 13:45:03;;;;;;;3.40;3.10;;;27.90;1.00;;;;;;5052787;28;20456;-68
2023/09/20 13:47:31;;;;;;;2.90;2.70;;;28.00;1.00;;;;;;5052947;28;20417;-68
2023/09/20 13:49:57;;;;;;;3.60;2.93;;;27.90;1.00;;;;;;5053099;28;20413;-68
2023/09/20 13:52:26;;;;;;;3.47;3.27;;;27.90;1.00;;;;;;5052699;28;20552;-68
2023/09/20 13:54:51;;;;;;;3.47;3.17;;;27.80;1.00;;;;;;5052877;28;20460;-68
2023/09/20 13:57:17;;;;;;;4.03;3.33;;;27.80;1.00;;;;;;5052890;28;20436;-68
2023/09/20 13:59:46;;;;;;;3.57;3.27;;;27.90;1.00;;;;;;5052713;28;20565;-68
2023/09/20 14:02:14;;;;;;;2.87;2.67;;;28.00;1.00;;;;;;5034821;28;20181;-67
2023/09/20 14:04:40;;;;;;;2.90;2.70;;;27.90;1.00;;;;;;5073753;22;20493;-70
2023/09/20 14:07:06;;;;;;;8.83;3.37;;;27.70;1.00;;;;;;5034745;28;20421;-70
2023/09/20 14:09:31;;;;;;;3.20;2.90;;;27.60;1.00;;;;;;5052913;28;20409;-68
2023/09/20 14:11:57;;;;;;;3.43;3.13;;;27.80;1.00;;;;;;5052357;28;20575;-69
2023/09/20 14:14:26;;;;;;;3.00;2.77;;;27.80;1.00;;;;;;5034617;28;20178;-68
2023/09/20 14:16:53;;;;;;;3.33;3.07;;;27.70;1.00;;;;;;5052447;28;20653;-68